createdAt,value
2023-03-23T00:02:18.672Z,707.00
2023-03-23T00:06:18.660Z,692.00
2023-03-23T00:10:18.713Z,729.00
2023-03-23T00:14:18.723Z,732.00
2023-03-23T00:18:18.627Z,715.00
2023-03-23T00:22:18.582Z,738.00
2023-03-23T00:26:18.549Z,727.00
2023-03-23T00:30:18.540Z,705.00
2023-03-23T00:34:18.510Z,715.00
2023-03-23T00:38:18.478Z,727.00
2023-03-23T00:42:18.687Z,743.00
2023-03-23T00:46:18.658Z,775.00
2023-03-23T00:50:22.254Z,784.00
2023-03-23T00:54:19.584Z,770.00
2023-03-23T00:58:18.616Z,792.00
2023-03-23T01:02:18.862Z,747.00
2023-03-23T01:06:18.816Z,753.00
2023-03-23T01:10:18.765Z,764.00
2023-03-23T01:14:18.704Z,743.00
2023-03-23T01:18:18.875Z,766.00
2023-03-23T01:22:19.834Z,778.00
2023-03-23T01:26:18.843Z,780.00
2023-03-23T01:30:19.061Z,785.00
2023-03-23T01:34:19.243Z,791.00
2023-03-23T01:38:19.447Z,791.00
2023-03-23T01:42:19.660Z,801.00
2023-03-23T01:46:19.844Z,806.00
2023-03-23T01:50:20.051Z,814.00
2023-03-23T01:54:20.252Z,843.00
2023-03-23T01:58:20.416Z,806.00
2023-03-23T02:02:20.624Z,825.00
2023-03-23T02:06:20.798Z,808.00
2023-03-23T02:10:20.969Z,792.00
2023-03-23T02:14:21.106Z,782.00
2023-03-23T02:18:21.306Z,829.00
2023-03-23T02:22:21.469Z,782.00
2023-03-23T02:26:21.669Z,791.00
2023-03-23T02:30:21.845Z,776.00
2023-03-23T02:34:22.013Z,793.00
2023-03-23T02:38:22.171Z,802.00
2023-03-23T02:42:22.439Z,771.00
2023-03-23T02:46:22.588Z,786.00
2023-03-23T02:50:22.745Z,767.00
2023-03-23T02:54:22.876Z,745.00
2023-03-23T02:58:23.044Z,745.00
2023-03-23T03:02:23.183Z,770.00
2023-03-23T03:06:23.334Z,730.00
2023-03-23T03:10:23.473Z,768.00
2023-03-23T03:14:23.649Z,772.00
2023-03-23T03:18:23.814Z,767.00
2023-03-23T03:22:23.947Z,765.00
2023-03-23T03:26:24.117Z,721.00
2023-03-23T03:30:24.326Z,699.00
2023-03-23T03:34:24.492Z,724.00
2023-03-23T03:38:24.706Z,697.00
2023-03-23T03:42:24.843Z,706.00
2023-03-23T03:46:24.978Z,721.00
2023-03-23T03:50:25.121Z,694.00
2023-03-23T03:54:25.324Z,729.00
2023-03-23T03:58:25.478Z,738.00
2023-03-23T04:02:25.599Z,733.00
2023-03-23T04:06:25.764Z,733.00
2023-03-23T04:10:32.600Z,789.00
2023-03-23T04:14:26.853Z,802.00
2023-03-23T04:18:25.817Z,814.00
2023-03-23T04:22:25.982Z,820.00
2023-03-23T04:26:26.149Z,830.00
2023-03-23T04:30:26.311Z,839.00
2023-03-23T04:34:26.491Z,864.00
2023-03-23T04:38:26.649Z,884.00
2023-03-23T04:42:26.803Z,905.00
2023-03-23T04:46:26.961Z,899.00
2023-03-23T04:50:27.112Z,891.00
2023-03-23T04:54:27.267Z,881.00
2023-03-23T04:58:28.042Z,856.00
2023-03-23T05:02:29.310Z,854.00
2023-03-23T05:06:27.705Z,830.00
2023-03-23T05:10:27.805Z,797.00
2023-03-23T05:14:27.976Z,807.00
2023-03-23T05:18:28.052Z,810.00
2023-03-23T05:22:28.521Z,774.00
2023-03-23T05:26:28.498Z,805.00
2023-03-23T05:30:28.493Z,802.00
2023-03-23T05:34:28.602Z,770.00
2023-03-23T05:38:28.961Z,790.00
2023-03-23T05:42:28.975Z,752.00
2023-03-23T05:46:29.132Z,755.00
2023-03-23T05:50:29.303Z,758.00
2023-03-23T05:54:29.522Z,775.00
2023-03-23T05:58:29.476Z,803.00
2023-03-23T06:02:29.430Z,885.00
2023-03-23T06:06:29.391Z,922.00
2023-03-23T06:10:29.473Z,1001.00
2023-03-23T06:14:29.475Z,1030.00
2023-03-23T06:18:29.319Z,1004.00
2023-03-23T06:22:29.238Z,1006.00
2023-03-23T06:26:29.217Z,1020.00
2023-03-23T06:30:29.214Z,983.00
2023-03-23T06:34:29.144Z,1024.00
2023-03-23T06:38:29.536Z,1078.00
2023-03-23T06:42:29.515Z,1166.00
2023-03-23T06:46:29.056Z,1246.00
2023-03-23T06:50:28.984Z,1322.00
2023-03-23T06:54:28.977Z,1826.00
2023-03-23T06:58:29.063Z,2043.00
2023-03-23T07:02:29.166Z,1512.00
2023-03-23T07:06:29.282Z,1570.00
2023-03-23T07:10:29.518Z,1521.00
2023-03-23T07:14:29.542Z,3504.00
2023-03-23T07:18:30.053Z,2242.00
2023-03-23T07:22:30.050Z,1762.00
2023-03-23T07:26:30.006Z,1804.00
2023-03-23T07:30:30.037Z,1622.00
2023-03-23T07:34:29.780Z,1615.00
2023-03-23T07:38:30.020Z,1607.00
2023-03-23T07:42:30.014Z,1585.00
2023-03-23T07:46:30.033Z,1593.00
2023-03-23T07:50:30.084Z,1570.00
2023-03-23T07:54:29.966Z,1508.00
2023-03-23T07:58:30.064Z,1641.00
2023-03-23T08:02:30.275Z,1680.00
2023-03-23T08:06:31.291Z,1558.00
2023-03-23T08:10:30.200Z,1481.00
2023-03-23T08:14:30.223Z,1363.00
2023-03-23T08:18:30.275Z,1403.00
2023-03-23T08:22:30.477Z,1406.00
2023-03-23T08:26:30.552Z,1336.00
2023-03-23T08:30:30.359Z,1322.00
2023-03-23T08:34:30.565Z,1674.00
2023-03-23T08:38:30.340Z,1240.00
2023-03-23T08:42:30.275Z,1016.00
2023-03-23T08:46:30.208Z,692.00
2023-03-23T08:50:30.185Z,661.00
2023-03-23T08:54:30.577Z,640.00
2023-03-23T08:58:30.096Z,587.00
2023-03-23T09:02:30.563Z,554.00
2023-03-23T09:06:30.063Z,559.00
2023-03-23T09:10:29.985Z,568.00
2023-03-23T09:14:29.955Z,648.00
2023-03-23T09:18:29.917Z,732.00
2023-03-23T09:22:30.075Z,1031.00
2023-03-23T09:26:30.018Z,1249.00
2023-03-23T09:30:30.157Z,1217.00
2023-03-23T09:34:30.135Z,1111.00
2023-03-23T09:38:30.094Z,1057.00
2023-03-23T09:42:30.058Z,1122.00
2023-03-23T09:46:30.005Z,902.00
2023-03-23T09:50:30.072Z,848.00
2023-03-23T09:54:30.115Z,847.00
2023-03-23T09:58:30.579Z,1133.00
2023-03-23T10:02:29.895Z,887.00
2023-03-23T10:06:29.863Z,996.00
2023-03-23T10:10:30.114Z,787.00
2023-03-23T10:14:30.093Z,1020.00
2023-03-23T10:18:30.098Z,1028.00
2023-03-23T10:22:29.701Z,864.00
2023-03-23T10:26:30.107Z,600.00
2023-03-23T10:30:30.087Z,951.00
2023-03-23T10:34:30.107Z,918.00
2023-03-23T10:38:30.096Z,883.00
2023-03-23T10:42:29.599Z,662.00
2023-03-23T10:46:32.170Z,721.00
2023-03-23T10:50:29.549Z,429.00
2023-03-23T10:54:29.609Z,657.00
2023-03-23T10:58:29.473Z,552.00
2023-03-23T11:02:29.830Z,1173.00
2023-03-23T11:06:29.601Z,1277.00
2023-03-23T11:10:29.330Z,1441.00
2023-03-23T11:14:29.316Z,657.00
2023-03-23T11:18:29.255Z,785.00
2023-03-23T11:22:29.686Z,1125.00
2023-03-23T11:26:29.639Z,1355.00
2023-03-23T11:30:29.625Z,1348.00
2023-03-23T11:34:29.156Z,1314.00
2023-03-23T11:38:29.126Z,1378.00
2023-03-23T11:42:29.131Z,1397.00
2023-03-23T11:46:29.006Z,1393.00
2023-03-23T11:50:28.949Z,1347.00
2023-03-23T11:54:28.935Z,1361.00
2023-03-23T11:58:29.138Z,1250.00
2023-03-23T12:02:29.134Z,1287.00
2023-03-23T12:06:29.623Z,1204.00
2023-03-23T12:10:40.571Z,1360.00
2023-03-23T12:14:36.595Z,1299.00
2023-03-23T12:18:30.621Z,1448.00
2023-03-23T12:22:29.660Z,1346.00
2023-03-23T12:26:29.297Z,1422.00
2023-03-23T12:30:29.242Z,1455.00
2023-03-23T12:34:29.195Z,1324.00
2023-03-23T12:38:29.221Z,1297.00
2023-03-23T12:42:29.191Z,1403.00
2023-03-23T12:46:29.169Z,1252.00
2023-03-23T12:50:29.148Z,1268.00
2023-03-23T12:54:29.063Z,1171.00
2023-03-23T12:58:29.036Z,1127.00
2023-03-23T13:02:28.987Z,1327.00
2023-03-23T13:06:32.748Z,1196.00
2023-03-23T13:10:28.952Z,1143.00
2023-03-23T13:14:28.875Z,1168.00
2023-03-23T13:18:28.847Z,1146.00
2023-03-23T13:22:28.789Z,1079.00
2023-03-23T13:26:28.857Z,951.00
2023-03-23T13:30:28.785Z,923.00
2023-03-23T13:34:28.970Z,1057.00
2023-03-23T13:38:29.138Z,854.00
2023-03-23T13:42:29.329Z,846.00
2023-03-23T13:46:29.587Z,1043.00
2023-03-23T13:50:29.712Z,769.00
2023-03-23T13:54:29.885Z,659.00
2023-03-23T13:58:30.190Z,663.00
2023-03-23T14:02:30.710Z,653.00
2023-03-23T14:06:30.400Z,716.00
2023-03-23T14:10:30.680Z,596.00
2023-03-23T14:14:30.730Z,736.00
2023-03-23T14:18:30.758Z,658.00
2023-03-23T14:22:30.850Z,590.00
2023-03-23T14:26:30.907Z,708.00
2023-03-23T14:30:31.222Z,560.00
2023-03-23T14:34:31.129Z,574.00
2023-03-23T14:38:31.703Z,666.00
2023-03-23T14:42:31.395Z,583.00
2023-03-23T14:46:31.457Z,622.00
2023-03-23T14:50:32.270Z,592.00
2023-03-23T14:54:31.703Z,632.00
2023-03-23T14:58:32.566Z,524.00
2023-03-23T15:02:31.771Z,554.00
2023-03-23T15:06:31.776Z,571.00
2023-03-23T15:10:31.798Z,607.00
2023-03-23T15:14:31.773Z,622.00
2023-03-23T15:18:31.795Z,584.00
2023-03-23T15:22:31.830Z,525.00
2023-03-23T15:26:31.806Z,575.00
2023-03-23T15:30:31.765Z,630.00
2023-03-23T15:34:31.786Z,553.00
2023-03-23T15:38:31.825Z,615.00
2023-03-23T15:42:31.792Z,617.00
2023-03-23T15:46:31.878Z,585.00
2023-03-23T15:50:31.786Z,549.00
2023-03-23T15:54:31.775Z,548.00
2023-03-23T15:58:31.797Z,567.00
2023-03-23T16:02:31.905Z,644.00
2023-03-23T16:06:31.820Z,653.00
2023-03-23T16:10:31.830Z,539.00
2023-03-23T16:14:31.818Z,602.00
2023-03-23T16:18:31.866Z,560.00
2023-03-23T16:22:31.866Z,562.00
2023-03-23T16:26:31.936Z,538.00
2023-03-23T16:30:32.035Z,549.00
2023-03-23T16:34:32.258Z,508.00
2023-03-23T16:38:32.237Z,534.00
2023-03-23T16:42:32.200Z,502.00
2023-03-23T16:46:32.357Z,509.00
2023-03-23T16:50:32.356Z,567.00
2023-03-23T16:54:32.535Z,568.00
2023-03-23T16:58:32.568Z,562.00
2023-03-23T17:02:32.773Z,568.00
2023-03-23T17:06:32.832Z,572.00
2023-03-23T17:10:32.914Z,610.00
2023-03-23T17:14:33.031Z,603.00
2023-03-23T17:18:33.199Z,601.00
2023-03-23T17:22:33.305Z,622.00
2023-03-23T17:26:33.442Z,615.00
2023-03-23T17:30:33.566Z,603.00
2023-03-23T17:34:33.717Z,587.00
2023-03-23T17:38:33.838Z,591.00
2023-03-23T17:42:33.986Z,598.00
2023-03-23T17:46:34.206Z,585.00
2023-03-23T17:50:34.300Z,571.00
2023-03-23T17:54:34.447Z,555.00
2023-03-23T17:58:34.682Z,563.00
2023-03-23T18:02:34.869Z,574.00
2023-03-23T18:06:34.911Z,569.00
2023-03-23T18:10:35.093Z,563.00
2023-03-23T18:14:35.271Z,550.00
2023-03-23T18:18:35.446Z,543.00
2023-03-23T18:22:35.643Z,554.00
2023-03-23T18:26:35.831Z,561.00
2023-03-23T18:30:36.002Z,572.00
2023-03-23T18:34:36.191Z,581.00
2023-03-23T18:38:38.124Z,609.00
2023-03-23T18:42:36.581Z,623.00
2023-03-23T18:46:36.832Z,633.00
2023-03-23T18:50:36.990Z,643.00
2023-03-23T18:54:37.169Z,664.00
2023-03-23T18:58:37.387Z,701.00
2023-03-23T19:02:37.659Z,682.00
2023-03-23T19:06:38.314Z,693.00
2023-03-23T19:10:38.028Z,736.00
2023-03-23T19:14:38.207Z,756.00
2023-03-23T19:18:38.430Z,813.00
2023-03-23T19:22:38.660Z,894.00
2023-03-23T19:26:38.877Z,887.00
2023-03-23T19:30:39.115Z,935.00
2023-03-23T19:34:39.154Z,910.00
2023-03-23T19:38:39.011Z,917.00
2023-03-23T19:42:40.272Z,907.00
2023-03-23T19:46:39.062Z,884.00
2023-03-23T19:50:38.892Z,904.00
2023-03-23T19:54:39.179Z,874.00
2023-03-23T19:58:39.025Z,891.00
2023-03-23T20:02:39.018Z,880.00
2023-03-23T20:06:39.043Z,805.00
2023-03-23T20:10:39.774Z,852.00
2023-03-23T20:14:38.849Z,886.00
2023-03-23T20:18:38.919Z,854.00
2023-03-23T20:22:38.840Z,877.00
2023-03-23T20:26:38.796Z,856.00
2023-03-23T20:30:38.824Z,784.00
2023-03-23T20:34:38.878Z,772.00
2023-03-23T20:38:39.005Z,777.00
2023-03-23T20:42:38.985Z,819.00
2023-03-23T20:46:38.931Z,706.00
2023-03-23T20:50:38.907Z,732.00
2023-03-23T20:54:38.917Z,699.00
2023-03-23T20:58:38.861Z,665.00
2023-03-23T21:02:38.792Z,722.00
2023-03-23T21:06:38.741Z,663.00
2023-03-23T21:10:38.707Z,664.00
2023-03-23T21:14:38.670Z,655.00
2023-03-23T21:18:38.625Z,712.00
2023-03-23T21:22:38.709Z,668.00
2023-03-23T21:26:38.929Z,786.00
2023-03-23T21:30:39.078Z,820.00
2023-03-23T21:34:39.333Z,773.00
2023-03-23T21:38:39.445Z,737.00
2023-03-23T21:42:39.528Z,819.00
2023-03-23T21:46:39.399Z,795.00
2023-03-23T21:50:39.382Z,738.00
2023-03-23T21:54:39.300Z,799.00
2023-03-23T21:58:39.294Z,825.00
2023-03-23T22:02:39.253Z,728.00
2023-03-23T22:06:39.201Z,725.00
2023-03-23T22:10:39.149Z,754.00
2023-03-23T22:14:39.165Z,741.00
2023-03-23T22:18:39.076Z,716.00
2023-03-23T22:22:39.024Z,807.00
2023-03-23T22:26:38.988Z,788.00
2023-03-23T22:30:38.950Z,742.00
2023-03-23T22:34:38.920Z,804.00
2023-03-23T22:38:38.870Z,764.00
2023-03-23T22:42:38.862Z,810.00
2023-03-23T22:46:38.898Z,796.00
2023-03-23T22:50:38.958Z,817.00
2023-03-23T22:54:38.991Z,819.00
2023-03-23T22:58:39.030Z,815.00
2023-03-23T23:02:39.095Z,773.00
2023-03-23T23:06:39.176Z,759.00
2023-03-23T23:10:39.295Z,735.00
2023-03-23T23:14:39.340Z,706.00
2023-03-23T23:18:39.361Z,731.00
2023-03-23T23:22:39.435Z,719.00
2023-03-23T23:26:39.469Z,737.00
2023-03-23T23:30:39.554Z,744.00
2023-03-23T23:34:39.576Z,742.00
2023-03-23T23:38:39.646Z,688.00
2023-03-23T23:42:39.617Z,772.00
2023-03-23T23:46:39.643Z,698.00
2023-03-23T23:50:39.647Z,742.00
2023-03-23T23:54:39.623Z,763.00
2023-03-23T23:58:39.633Z,764.00
